createdAt,value
2023-05-05T00:02:23.249Z,97557.41
2023-05-05T00:06:25.960Z,97553.81
2023-05-05T00:10:30.028Z,97545.09
2023-05-05T00:14:32.642Z,97542.13
2023-05-05T00:18:35.295Z,97550.19
2023-05-05T00:22:37.891Z,97541.22
2023-05-05T00:26:41.884Z,97544.16
2023-05-05T00:30:44.672Z,97549.91
2023-05-05T00:34:47.414Z,97552.50
2023-05-05T00:38:50.012Z,97551.41
2023-05-05T00:42:54.003Z,97547.25
2023-05-05T00:46:56.787Z,97541.00
2023-05-05T00:50:59.622Z,97544.75
2023-05-05T00:55:02.734Z,97538.72
2023-05-05T00:59:06.741Z,97541.59
2023-05-05T01:03:09.459Z,97535.31
2023-05-05T01:07:23.239Z,97522.84
2023-05-05T01:11:31.039Z,97519.31
2023-05-05T01:15:37.440Z,97520.09
2023-05-05T01:19:54.299Z,97532.28
2023-05-05T01:24:28.229Z,97540.06
2023-05-05T01:28:50.568Z,97532.50
2023-05-05T01:32:59.390Z,97528.97
2023-05-05T01:37:11.075Z,97529.22
2023-05-05T01:41:18.303Z,97525.69
2023-05-05T01:45:25.750Z,97527.81
2023-05-05T01:49:30.948Z,97523.28
2023-05-05T01:53:34.831Z,97536.72
2023-05-05T01:57:40.769Z,97525.88
2023-05-05T02:01:44.731Z,97521.03
2023-05-05T02:05:51.185Z,97525.97
2023-05-05T02:09:54.752Z,97524.41
2023-05-05T02:13:57.489Z,97522.50
2023-05-05T02:18:02.492Z,97546.44
2023-05-05T02:22:06.773Z,97536.44
2023-05-05T02:26:11.533Z,97531.63
2023-05-05T02:30:18.062Z,97533.22
2023-05-05T02:34:25.249Z,97527.38
2023-05-05T02:38:30.421Z,97541.03
2023-05-05T02:42:36.149Z,97531.84
2023-05-05T02:46:39.380Z,97530.97
2023-05-05T02:50:42.095Z,97530.03
2023-05-05T02:54:46.246Z,97529.09
2023-05-05T02:58:55.325Z,97526.00
2023-05-05T03:03:13.996Z,97525.88
2023-05-05T03:07:22.989Z,97519.75
2023-05-05T03:11:32.878Z,97524.31
2023-05-05T03:15:41.406Z,97521.44
2023-05-05T03:19:45.572Z,97508.19
2023-05-05T03:23:48.902Z,97515.50
2023-05-05T03:27:52.861Z,97529.50
2023-05-05T03:31:55.522Z,97533.59
2023-05-05T03:35:58.213Z,97538.56
2023-05-05T03:40:01.067Z,97531.69
2023-05-05T03:44:05.488Z,97535.63
2023-05-05T03:48:09.637Z,97540.91
2023-05-05T03:52:14.519Z,97536.44
2023-05-05T03:56:17.697Z,97535.97
2023-05-05T04:00:21.999Z,97538.28
2023-05-05T04:04:24.760Z,97527.69
2023-05-05T04:08:27.460Z,97528.16
2023-05-05T04:12:30.213Z,97535.41
2023-05-05T04:16:34.251Z,97532.34
2023-05-05T04:20:36.980Z,97528.94
2023-05-05T04:24:39.596Z,97528.03
2023-05-05T04:28:42.216Z,97524.88
2023-05-05T04:32:47.038Z,97527.56
2023-05-05T04:36:49.667Z,97525.16
2023-05-05T04:40:52.302Z,97533.03
2023-05-05T04:44:55.121Z,97536.44
2023-05-05T04:49:01.939Z,97529.88
2023-05-05T04:53:04.572Z,97538.28
2023-05-05T04:57:07.314Z,97536.78
2023-05-05T05:01:10.046Z,97531.13
2023-05-05T05:05:14.328Z,97537.66
2023-05-05T05:09:18.314Z,97539.78
2023-05-05T05:13:21.035Z,97550.31
2023-05-05T05:17:24.870Z,97551.66
2023-05-05T05:21:28.960Z,97558.13
2023-05-05T05:25:31.717Z,97554.47
2023-05-05T05:29:34.670Z,97546.44
2023-05-05T05:33:37.820Z,97553.03
2023-05-05T05:37:42.303Z,97561.09
2023-05-05T05:41:44.947Z,97562.28
2023-05-05T05:45:50.393Z,97568.88
2023-05-05T05:49:53.514Z,97571.47
2023-05-05T05:53:59.032Z,97562.19
2023-05-05T05:58:01.780Z,97562.41
2023-05-05T06:02:04.564Z,97556.13
2023-05-05T06:06:07.546Z,97570.53
2023-05-05T06:10:26.815Z,97564.38
2023-05-05T06:14:30.934Z,97555.44
2023-05-05T06:18:33.629Z,97551.81
2023-05-05T06:22:36.336Z,97557.72
2023-05-05T06:26:40.350Z,97551.72
2023-05-05T06:30:43.695Z,97551.63
2023-05-05T06:34:47.398Z,97552.69
2023-05-05T06:38:52.719Z,97554.50
2023-05-05T06:42:56.709Z,97563.28
2023-05-05T06:46:59.413Z,97558.88
2023-05-05T06:51:03.017Z,97574.91
2023-05-05T06:55:06.722Z,97582.50
2023-05-05T06:59:10.739Z,97574.06
2023-05-05T07:03:16.758Z,97577.44
2023-05-05T07:07:19.352Z,97578.81
2023-05-05T07:11:22.030Z,97576.16
2023-05-05T07:15:29.152Z,97588.84
2023-05-05T07:19:32.484Z,97586.34
2023-05-05T07:23:40.661Z,97565.97
2023-05-05T07:27:48.280Z,97564.47
2023-05-05T07:31:52.327Z,97557.09
2023-05-05T07:35:55.544Z,97545.19
2023-05-05T07:39:58.165Z,97544.56
2023-05-05T07:44:01.180Z,97545.94
2023-05-05T07:48:05.349Z,97542.47
2023-05-05T07:52:08.051Z,97537.88
2023-05-05T07:56:10.729Z,97533.78
2023-05-05T08:00:14.684Z,97540.81
2023-05-05T08:04:18.715Z,97542.94
2023-05-05T08:08:26.215Z,97540.69
2023-05-05T08:12:28.831Z,97540.56
2023-05-05T08:16:31.716Z,97530.50
2023-05-05T08:20:35.893Z,97530.28
2023-05-05T08:24:38.569Z,97538.88
2023-05-05T08:28:41.306Z,97524.94
2023-05-05T08:32:43.970Z,97524.78
2023-05-05T08:36:49.122Z,97527.69
2023-05-05T08:40:55.600Z,97530.75
2023-05-05T08:45:04.943Z,97535.72
2023-05-05T08:49:14.825Z,97529.00
2023-05-05T08:53:22.473Z,97525.38
2023-05-05T08:57:33.406Z,97523.13
2023-05-05T09:01:36.451Z,97524.50
2023-05-05T09:05:40.679Z,97523.31
2023-05-05T09:09:45.241Z,97529.13
2023-05-05T09:13:48.425Z,97522.25
2023-05-05T09:17:51.260Z,97521.63
2023-05-05T09:21:54.608Z,97515.13
2023-05-05T09:26:05.909Z,97516.88
2023-05-05T09:30:13.607Z,97518.00
2023-05-05T09:34:17.996Z,97513.59
2023-05-05T09:42:49.970Z,97511.72
2023-05-05T09:46:55.253Z,97504.59
2023-05-05T09:51:02.588Z,97504.06
2023-05-05T09:59:33.861Z,97507.91
2023-05-05T10:03:51.417Z,97505.19
2023-05-05T10:07:54.077Z,97499.06
2023-05-05T10:11:58.862Z,97490.19
2023-05-05T10:16:04.679Z,97495.03
2023-05-05T10:20:10.920Z,97493.81
2023-05-05T10:24:22.654Z,97485.22
2023-05-05T10:33:17.300Z,97480.88
2023-05-05T10:37:25.765Z,97485.28
2023-05-05T10:41:30.918Z,97461.28
2023-05-05T10:45:33.963Z,97472.00
2023-05-05T10:49:43.949Z,97468.38
2023-05-05T10:53:55.885Z,97466.16
2023-05-05T10:57:58.580Z,97463.88
2023-05-05T11:02:04.730Z,97453.28
2023-05-05T11:06:15.711Z,97460.00
2023-05-05T11:10:21.558Z,97447.19
2023-05-05T11:14:26.129Z,97440.22
2023-05-05T11:18:35.784Z,97426.19
2023-05-05T11:23:23.797Z,97425.28
2023-05-05T11:28:06.767Z,97419.97
2023-05-05T11:32:12.813Z,97411.78
2023-05-05T11:36:16.873Z,97406.25
2023-05-05T11:40:29.851Z,97402.34
2023-05-05T11:44:39.205Z,97396.81
2023-05-05T11:48:45.949Z,97396.72
2023-05-05T11:52:50.332Z,97393.13
2023-05-05T11:56:55.950Z,97384.13
2023-05-05T12:01:00.908Z,97382.38
2023-05-05T12:05:05.397Z,97375.72
2023-05-05T12:09:08.406Z,97379.16
2023-05-05T12:13:22.035Z,97369.53
2023-05-05T12:17:24.821Z,97369.59
2023-05-05T12:21:27.469Z,97354.69
2023-05-05T12:25:40.524Z,97355.75
2023-05-05T12:29:44.472Z,97346.69
2023-05-05T12:33:47.474Z,97349.88
2023-05-05T12:37:50.117Z,97343.81
2023-05-05T12:41:52.742Z,97339.19
2023-05-05T12:46:08.473Z,97328.31
2023-05-05T12:50:11.491Z,97338.00
2023-05-05T12:54:14.129Z,97337.81
2023-05-05T12:58:16.853Z,97332.69
2023-05-05T13:02:21.537Z,97336.19
2023-05-05T13:06:24.709Z,97327.53
2023-05-05T13:10:28.320Z,97331.69
2023-05-05T13:14:32.867Z,97324.81
2023-05-05T13:18:46.097Z,97315.28
2023-05-05T13:22:51.385Z,97322.47
2023-05-05T13:26:54.193Z,97311.84
2023-05-05T13:30:58.630Z,97305.63
2023-05-05T13:35:02.748Z,97297.63
2023-05-05T13:39:05.494Z,97298.72
2023-05-05T13:43:09.827Z,97295.34
2023-05-05T13:47:14.069Z,97294.31
2023-05-05T13:51:18.234Z,97281.66
2023-05-05T13:55:21.532Z,97287.56
2023-05-05T13:59:25.893Z,97281.19
2023-05-05T14:03:28.520Z,97275.59
2023-05-05T14:07:32.751Z,97272.28
2023-05-05T14:11:35.482Z,97267.75
2023-05-05T14:15:38.475Z,97263.19
2023-05-05T14:19:41.083Z,97255.69
2023-05-05T14:23:45.005Z,97253.94
2023-05-05T14:27:47.824Z,97249.28
2023-05-05T14:31:50.712Z,97252.53
2023-05-05T14:35:57.203Z,97266.84
2023-05-05T14:40:02.034Z,97256.88
2023-05-05T14:44:06.315Z,97256.19
2023-05-05T14:48:08.988Z,97254.50
2023-05-05T14:52:17.113Z,97257.25
2023-05-05T14:56:22.617Z,97252.22
2023-05-05T15:00:26.616Z,97254.56
2023-05-05T15:04:29.242Z,97240.84
2023-05-05T15:08:32.806Z,97241.69
2023-05-05T15:12:36.824Z,97251.66
2023-05-05T15:16:39.606Z,97245.59
2023-05-05T15:20:42.260Z,97244.56
2023-05-05T15:24:44.876Z,97233.63
2023-05-05T15:28:50.292Z,97237.66
2023-05-05T15:32:54.205Z,97236.47
2023-05-05T15:36:57.111Z,97230.84
2023-05-05T15:41:00.027Z,97219.31
2023-05-05T15:45:05.041Z,97221.22
2023-05-05T15:49:07.723Z,97225.16
2023-05-05T15:53:10.716Z,97214.28
2023-05-05T15:57:15.130Z,97211.69
2023-05-05T16:05:23.255Z,97214.97
2023-05-05T16:09:26.099Z,97208.84
2023-05-05T16:13:28.739Z,97208.34
2023-05-05T16:17:32.744Z,97201.31
2023-05-05T16:21:35.361Z,97205.41
2023-05-05T16:25:37.999Z,97198.66
2023-05-05T16:29:40.780Z,97197.59
2023-05-05T16:33:44.755Z,97191.56
2023-05-05T16:37:47.505Z,97190.19
2023-05-05T16:41:50.175Z,97184.19
2023-05-05T16:45:52.970Z,97190.34
2023-05-05T16:49:57.187Z,97184.13
2023-05-05T16:53:59.821Z,97191.16
2023-05-05T16:58:02.531Z,97193.44
2023-05-05T17:02:05.245Z,97186.09
2023-05-05T17:06:15.576Z,97192.19
2023-05-05T17:10:20.228Z,97184.00
2023-05-05T17:14:24.349Z,97184.31
2023-05-05T17:18:26.945Z,97193.38
2023-05-05T17:22:32.236Z,97188.75
2023-05-05T17:26:34.929Z,97189.06
2023-05-05T17:30:37.792Z,97182.22
2023-05-05T17:34:41.148Z,97178.41
2023-05-05T17:38:45.096Z,97185.81
2023-05-05T17:42:47.697Z,97173.78
2023-05-05T17:46:50.634Z,97167.50
2023-05-05T17:50:53.217Z,97172.16
2023-05-05T17:54:57.413Z,97169.94
2023-05-05T17:59:01.171Z,97168.03
2023-05-05T18:03:03.918Z,97162.03
2023-05-05T18:07:06.562Z,97151.88
2023-05-05T18:11:10.548Z,97159.28
2023-05-05T18:15:13.287Z,97155.19
2023-05-05T18:19:16.135Z,97150.78
2023-05-05T18:23:19.204Z,97146.41
2023-05-05T18:27:23.364Z,97137.38
2023-05-05T18:31:26.583Z,97132.97
2023-05-05T18:35:29.419Z,97133.81
2023-05-05T18:39:32.019Z,97133.75
2023-05-05T18:43:38.148Z,97136.78
2023-05-05T18:47:41.456Z,97138.13
2023-05-05T18:51:44.191Z,97146.59
2023-05-05T18:55:47.132Z,97150.72
2023-05-05T18:59:51.252Z,97165.19
2023-05-05T19:03:53.967Z,97172.53
2023-05-05T19:07:56.707Z,97181.47
2023-05-05T19:11:59.558Z,97194.22
2023-05-05T19:16:03.654Z,97198.00
2023-05-05T19:20:07.556Z,97191.69
2023-05-05T19:24:10.440Z,97175.28
2023-05-05T19:28:13.160Z,97170.25
2023-05-05T19:32:17.556Z,97169.06
2023-05-05T19:36:20.297Z,97170.34
2023-05-05T19:40:23.769Z,97171.69
2023-05-05T19:44:26.461Z,97181.88
2023-05-05T19:48:31.459Z,97183.59
2023-05-05T19:52:36.537Z,97186.94
2023-05-05T19:56:39.472Z,97196.78
2023-05-05T20:00:42.417Z,97194.59
2023-05-05T20:04:46.383Z,97184.97
2023-05-05T20:08:49.184Z,97192.53
2023-05-05T20:12:51.826Z,97194.91
2023-05-05T20:16:54.556Z,97197.56
2023-05-05T20:20:59.816Z,97197.50
2023-05-05T20:25:02.556Z,97202.25
2023-05-05T20:29:05.184Z,97226.03
2023-05-05T20:33:08.077Z,97255.41
2023-05-05T20:37:13.778Z,97320.88
2023-05-05T20:41:16.625Z,97345.44
2023-05-05T20:45:19.357Z,97338.91
2023-05-05T20:49:21.932Z,97348.28
2023-05-05T20:53:26.170Z,97353.63
2023-05-05T20:57:28.821Z,97361.38
2023-05-05T21:01:31.491Z,97367.78
2023-05-05T21:05:34.208Z,97376.72
2023-05-05T21:09:39.157Z,97378.72
2023-05-05T21:13:42.189Z,97379.47
2023-05-05T21:17:45.175Z,97373.22
2023-05-05T21:21:50.107Z,97356.47
2023-05-05T21:25:57.328Z,97352.81
2023-05-05T21:30:00.199Z,97360.16
2023-05-05T21:34:05.321Z,97362.75
2023-05-05T21:38:08.350Z,97357.09
2023-05-05T21:42:21.735Z,97364.66
2023-05-05T21:46:24.727Z,97357.69
2023-05-05T21:50:29.474Z,97345.41
2023-05-05T21:54:32.467Z,97345.66
2023-05-05T21:58:36.520Z,97347.63
2023-05-05T22:02:39.290Z,97347.88
2023-05-05T22:06:42.028Z,97347.16
2023-05-05T22:10:44.690Z,97347.25
2023-05-05T22:14:48.626Z,97354.59
2023-05-05T22:18:51.361Z,97353.28
2023-05-05T22:22:53.948Z,97354.94
2023-05-05T22:26:57.356Z,97355.78
2023-05-05T22:31:01.514Z,97366.19
2023-05-05T22:35:04.683Z,97375.97
2023-05-05T22:39:07.438Z,97370.88
2023-05-05T22:43:13.399Z,97363.81
2023-05-05T22:47:18.983Z,97355.53
2023-05-05T22:51:21.655Z,97370.53
2023-05-05T22:55:24.869Z,97356.34
2023-05-05T22:59:27.495Z,97367.47
2023-05-05T23:03:31.789Z,97363.47
2023-05-05T23:07:34.384Z,97371.03
2023-05-05T23:11:37.057Z,97372.81
2023-05-05T23:15:40.976Z,97371.88
2023-05-05T23:19:48.457Z,97370.38
2023-05-05T23:23:51.142Z,97367.78
2023-05-05T23:27:53.770Z,97368.13
2023-05-05T23:31:56.584Z,97374.53
2023-05-05T23:36:00.680Z,97373.34
2023-05-05T23:40:03.397Z,97385.53
2023-05-05T23:44:06.795Z,97385.66
2023-05-05T23:48:09.479Z,97387.44
2023-05-05T23:52:13.769Z,97398.19
2023-05-05T23:56:16.750Z,97389.28
